sensor_id;sensor_type;location;lat;lon;timestamp;P1;durP1;ratioP1;P2;durP2;ratioP2
38089;SDS011;23904;52.322;10.232;2022-08-24T00:01:51;7.10;;;2.38;;
38089;SDS011;23904;52.322;10.232;2022-08-24T00:04:17;7.22;;;2.70;;
38089;SDS011;23904;52.322;10.232;2022-08-24T00:06:42;6.68;;;3.03;;
38089;SDS011;23904;52.322;10.232;2022-08-24T00:09:08;6.03;;;3.03;;
38089;SDS011;23904;52.322;10.232;2022-08-24T00:11:34;5.30;;;2.63;;
38089;SDS011;23904;52.322;10.232;2022-08-24T00:13:59;8.20;;;2.45;;
38089;SDS011;23904;52.322;10.232;2022-08-24T00:16:25;6.40;;;2.83;;
38089;SDS011;23904;52.322;10.232;2022-08-24T00:18:51;5.53;;;2.50;;
38089;SDS011;23904;52.322;10.232;2022-08-24T00:21:16;5.88;;;2.47;;
38089;SDS011;23904;52.322;10.232;2022-08-24T00:23:43;6.88;;;2.55;;
38089;SDS011;23904;52.322;10.232;2022-08-24T00:26:09;8.27;;;2.92;;
38089;SDS011;23904;52.322;10.232;2022-08-24T00:28:35;4.45;;;2.70;;
38089;SDS011;23904;52.322;10.232;2022-08-24T00:31:01;8.02;;;3.08;;
38089;SDS011;23904;52.322;10.232;2022-08-24T00:33:27;4.30;;;2.55;;
38089;SDS011;23904;52.322;10.232;2022-08-24T00:35:53;4.85;;;2.63;;
38089;SDS011;23904;52.322;10.232;2022-08-24T00:38:19;7.03;;;3.15;;
38089;SDS011;23904;52.322;10.232;2022-08-24T00:40:45;5.55;;;2.33;;
38089;SDS011;23904;52.322;10.232;2022-08-24T00:43:12;6.03;;;2.70;;
38089;SDS011;23904;52.322;10.232;2022-08-24T00:48:14;8.25;;;2.63;;
38089;SDS011;23904;52.322;10.232;2022-08-24T00:53:24;6.15;;;2.15;;
38089;SDS011;23904;52.322;10.232;2022-08-24T00:56:04;5.05;;;2.25;;
38089;SDS011;23904;52.322;10.232;2022-08-24T00:58:35;6.22;;;2.47;;
38089;SDS011;23904;52.322;10.232;2022-08-24T01:01:05;5.63;;;2.30;;
38089;SDS011;23904;52.322;10.232;2022-08-24T01:03:33;8.65;;;2.50;;
38089;SDS011;23904;52.322;10.232;2022-08-24T01:06:01;4.85;;;2.10;;
38089;SDS011;23904;52.322;10.232;2022-08-24T01:08:26;6.72;;;2.35;;
38089;SDS011;23904;52.322;10.232;2022-08-24T01:10:54;5.32;;;1.98;;
38089;SDS011;23904;52.322;10.232;2022-08-24T01:13:25;5.95;;;2.08;;
38089;SDS011;23904;52.322;10.232;2022-08-24T01:15:52;7.38;;;2.08;;
38089;SDS011;23904;52.322;10.232;2022-08-24T01:18:22;7.63;;;2.13;;
38089;SDS011;23904;52.322;10.232;2022-08-24T01:21:19;8.27;;;2.35;;
38089;SDS011;23904;52.322;10.232;2022-08-24T01:23:54;4.25;;;2.50;;
38089;SDS011;23904;52.322;10.232;2022-08-24T01:26:26;6.30;;;2.70;;
38089;SDS011;23904;52.322;10.232;2022-08-24T01:28:59;5.55;;;2.53;;
38089;SDS011;23904;52.322;10.232;2022-08-24T01:31:28;6.07;;;2.33;;
38089;SDS011;23904;52.322;10.232;2022-08-24T01:33:54;5.28;;;2.42;;
38089;SDS011;23904;52.322;10.232;2022-08-24T01:36:29;7.07;;;2.33;;
38089;SDS011;23904;52.322;10.232;2022-08-24T01:39:21;7.95;;;2.03;;
38089;SDS011;23904;52.322;10.232;2022-08-24T01:41:48;5.47;;;2.33;;
38089;SDS011;23904;52.322;10.232;2022-08-24T01:44:15;5.68;;;2.83;;
38089;SDS011;23904;52.322;10.232;2022-08-24T01:46:45;4.60;;;2.45;;
38089;SDS011;23904;52.322;10.232;2022-08-24T01:49:20;9.75;;;2.88;;
38089;SDS011;23904;52.322;10.232;2022-08-24T01:51:46;6.13;;;2.88;;
38089;SDS011;23904;52.322;10.232;2022-08-24T01:54:12;8.20;;;2.47;;
38089;SDS011;23904;52.322;10.232;2022-08-24T01:56:38;6.35;;;2.33;;
38089;SDS011;23904;52.322;10.232;2022-08-24T01:59:05;10.65;;;2.25;;
38089;SDS011;23904;52.322;10.232;2022-08-24T02:01:32;5.30;;;2.47;;
38089;SDS011;23904;52.322;10.232;2022-08-24T02:04:02;7.78;;;3.03;;
38089;SDS011;23904;52.322;10.232;2022-08-24T02:06:29;4.63;;;2.60;;
38089;SDS011;23904;52.322;10.232;2022-08-24T02:08:56;4.10;;;2.30;;
38089;SDS011;23904;52.322;10.232;2022-08-24T02:11:22;4.05;;;2.20;;
38089;SDS011;23904;52.322;10.232;2022-08-24T02:13:48;6.75;;;2.55;;
38089;SDS011;23904;52.322;10.232;2022-08-24T02:16:13;8.45;;;2.70;;
38089;SDS011;23904;52.322;10.232;2022-08-24T02:18:39;5.90;;;3.17;;
38089;SDS011;23904;52.322;10.232;2022-08-24T02:21:06;8.38;;;2.78;;
38089;SDS011;23904;52.322;10.232;2022-08-24T02:23:33;6.05;;;2.80;;
38089;SDS011;23904;52.322;10.232;2022-08-24T02:26:00;6.00;;;2.70;;
38089;SDS011;23904;52.322;10.232;2022-08-24T02:28:29;6.10;;;2.20;;
38089;SDS011;23904;52.322;10.232;2022-08-24T02:30:55;7.55;;;2.65;;
38089;SDS011;23904;52.322;10.232;2022-08-24T02:33:21;8.82;;;3.20;;
38089;SDS011;23904;52.322;10.232;2022-08-24T02:35:47;7.63;;;2.60;;
38089;SDS011;23904;52.322;10.232;2022-08-24T02:38:13;4.88;;;2.08;;
38089;SDS011;23904;52.322;10.232;2022-08-24T02:40:39;8.05;;;3.00;;
38089;SDS011;23904;52.322;10.232;2022-08-24T02:43:06;8.35;;;2.70;;
38089;SDS011;23904;52.322;10.232;2022-08-24T02:45:32;5.40;;;2.60;;
38089;SDS011;23904;52.322;10.232;2022-08-24T02:48:01;6.75;;;2.78;;
38089;SDS011;23904;52.322;10.232;2022-08-24T02:50:27;8.15;;;2.40;;
38089;SDS011;23904;52.322;10.232;2022-08-24T02:52:52;5.93;;;2.63;;
38089;SDS011;23904;52.322;10.232;2022-08-24T02:55:18;9.93;;;2.20;;
38089;SDS011;23904;52.322;10.232;2022-08-24T02:57:44;10.80;;;3.17;;
38089;SDS011;23904;52.322;10.232;2022-08-24T03:00:12;4.22;;;2.28;;
38089;SDS011;23904;52.322;10.232;2022-08-24T03:02:39;7.10;;;2.75;;
38089;SDS011;23904;52.322;10.232;2022-08-24T03:05:05;8.55;;;2.78;;
38089;SDS011;23904;52.322;10.232;2022-08-24T03:07:31;5.88;;;2.67;;
38089;SDS011;23904;52.322;10.232;2022-08-24T03:09:56;5.53;;;2.90;;
38089;SDS011;23904;52.322;10.232;2022-08-24T03:12:22;6.78;;;2.72;;
38089;SDS011;23904;52.322;10.232;2022-08-24T03:14:47;6.18;;;3.00;;
38089;SDS011;23904;52.322;10.232;2022-08-24T03:17:13;6.18;;;3.05;;
38089;SDS011;23904;52.322;10.232;2022-08-24T03:19:39;5.13;;;2.80;;
38089;SDS011;23904;52.322;10.232;2022-08-24T03:22:04;6.95;;;2.65;;
38089;SDS011;23904;52.322;10.232;2022-08-24T03:24:30;6.72;;;3.08;;
38089;SDS011;23904;52.322;10.232;2022-08-24T03:26:56;4.85;;;2.90;;
38089;SDS011;23904;52.322;10.232;2022-08-24T03:29:22;9.30;;;2.70;;
38089;SDS011;23904;52.322;10.232;2022-08-24T03:31:48;5.53;;;2.67;;
38089;SDS011;23904;52.322;10.232;2022-08-24T03:34:14;7.45;;;2.28;;
38089;SDS011;23904;52.322;10.232;2022-08-24T03:36:40;8.60;;;2.85;;
38089;SDS011;23904;52.322;10.232;2022-08-24T03:39:10;7.82;;;3.30;;
38089;SDS011;23904;52.322;10.232;2022-08-24T03:41:36;7.90;;;3.08;;
38089;SDS011;23904;52.322;10.232;2022-08-24T03:44:01;6.43;;;2.70;;
38089;SDS011;23904;52.322;10.232;2022-08-24T03:46:28;6.25;;;2.70;;
38089;SDS011;23904;52.322;10.232;2022-08-24T03:48:55;5.57;;;2.85;;
38089;SDS011;23904;52.322;10.232;2022-08-24T03:51:23;8.88;;;3.58;;
38089;SDS011;23904;52.322;10.232;2022-08-24T03:53:50;8.55;;;3.15;;
38089;SDS011;23904;52.322;10.232;2022-08-24T03:56:16;8.75;;;3.00;;
38089;SDS011;23904;52.322;10.232;2022-08-24T03:58:43;8.82;;;3.83;;
38089;SDS011;23904;52.322;10.232;2022-08-24T04:01:09;6.30;;;3.00;;
38089;SDS011;23904;52.322;10.232;2022-08-24T04:03:39;7.53;;;2.88;;
38089;SDS011;23904;52.322;10.232;2022-08-24T04:06:06;8.05;;;3.40;;
38089;SDS011;23904;52.322;10.232;2022-08-24T04:08:32;10.57;;;3.75;;
38089;SDS011;23904;52.322;10.232;2022-08-24T04:10:58;5.60;;;3.55;;
38089;SDS011;23904;52.322;10.232;2022-08-24T04:13:25;7.80;;;3.50;;
38089;SDS011;23904;52.322;10.232;2022-08-24T04:15:50;4.72;;;3.20;;
38089;SDS011;23904;52.322;10.232;2022-08-24T04:18:17;5.50;;;3.15;;
38089;SDS011;23904;52.322;10.232;2022-08-24T04:20:43;12.93;;;3.65;;
38089;SDS011;23904;52.322;10.232;2022-08-24T04:23:10;5.75;;;2.78;;
38089;SDS011;23904;52.322;10.232;2022-08-24T04:25:44;9.63;;;3.35;;
38089;SDS011;23904;52.322;10.232;2022-08-24T04:28:12;8.90;;;3.22;;
38089;SDS011;23904;52.322;10.232;2022-08-24T04:30:39;8.02;;;3.65;;
38089;SDS011;23904;52.322;10.232;2022-08-24T04:33:06;5.18;;;2.85;;
38089;SDS011;23904;52.322;10.232;2022-08-24T04:35:41;9.20;;;3.70;;
38089;SDS011;23904;52.322;10.232;2022-08-24T04:38:11;7.93;;;3.20;;
38089;SDS011;23904;52.322;10.232;2022-08-24T04:40:40;7.72;;;3.55;;
38089;SDS011;23904;52.322;10.232;2022-08-24T04:43:07;7.78;;;3.05;;
38089;SDS011;23904;52.322;10.232;2022-08-24T04:45:33;7.78;;;3.60;;
38089;SDS011;23904;52.322;10.232;2022-08-24T04:48:02;6.00;;;3.35;;
38089;SDS011;23904;52.322;10.232;2022-08-24T04:50:27;5.82;;;2.90;;
38089;SDS011;23904;52.322;10.232;2022-08-24T04:52:53;9.55;;;4.55;;
38089;SDS011;23904;52.322;10.232;2022-08-24T04:55:18;6.35;;;3.80;;
38089;SDS011;23904;52.322;10.232;2022-08-24T04:57:44;6.53;;;3.25;;
38089;SDS011;23904;52.322;10.232;2022-08-24T05:00:10;5.38;;;3.55;;
38089;SDS011;23904;52.322;10.232;2022-08-24T05:02:36;6.18;;;3.17;;
38089;SDS011;23904;52.322;10.232;2022-08-24T05:05:06;12.15;;;4.00;;
38089;SDS011;23904;52.322;10.232;2022-08-24T05:07:33;10.23;;;3.97;;
38089;SDS011;23904;52.322;10.232;2022-08-24T05:09:59;11.45;;;3.85;;
38089;SDS011;23904;52.322;10.232;2022-08-24T05:12:25;7.20;;;3.60;;
38089;SDS011;23904;52.322;10.232;2022-08-24T05:14:50;10.00;;;4.18;;
38089;SDS011;23904;52.322;10.232;2022-08-24T05:17:16;8.63;;;3.78;;
38089;SDS011;23904;52.322;10.232;2022-08-24T05:19:41;7.32;;;3.25;;
38089;SDS011;23904;52.322;10.232;2022-08-24T05:22:07;6.20;;;3.97;;
38089;SDS011;23904;52.322;10.232;2022-08-24T05:24:33;8.77;;;3.35;;
38089;SDS011;23904;52.322;10.232;2022-08-24T05:26:58;8.73;;;3.80;;
38089;SDS011;23904;52.322;10.232;2022-08-24T05:29:24;9.23;;;4.05;;
38089;SDS011;23904;52.322;10.232;2022-08-24T05:31:50;6.22;;;3.22;;
38089;SDS011;23904;52.322;10.232;2022-08-24T05:34:16;7.90;;;3.47;;
38089;SDS011;23904;52.322;10.232;2022-08-24T05:36:42;6.20;;;3.63;;
38089;SDS011;23904;52.322;10.232;2022-08-24T05:39:09;6.72;;;3.40;;
38089;SDS011;23904;52.322;10.232;2022-08-24T05:41:36;7.65;;;3.90;;
38089;SDS011;23904;52.322;10.232;2022-08-24T05:44:07;6.07;;;3.60;;
38089;SDS011;23904;52.322;10.232;2022-08-24T05:46:35;7.10;;;3.72;;
38089;SDS011;23904;52.322;10.232;2022-08-24T05:49:00;6.82;;;4.47;;
38089;SDS011;23904;52.322;10.232;2022-08-24T05:51:26;10.88;;;3.95;;
38089;SDS011;23904;52.322;10.232;2022-08-24T05:53:53;7.95;;;4.32;;
38089;SDS011;23904;52.322;10.232;2022-08-24T05:56:18;7.75;;;4.00;;
38089;SDS011;23904;52.322;10.232;2022-08-24T05:58:44;6.68;;;3.78;;
38089;SDS011;23904;52.322;10.232;2022-08-24T06:01:15;9.23;;;3.38;;
38089;SDS011;23904;52.322;10.232;2022-08-24T06:03:45;10.73;;;4.35;;
38089;SDS011;23904;52.322;10.232;2022-08-24T06:06:12;8.38;;;3.95;;
38089;SDS011;23904;52.322;10.232;2022-08-24T06:08:40;9.50;;;4.00;;
38089;SDS011;23904;52.322;10.232;2022-08-24T06:11:07;8.27;;;3.72;;
38089;SDS011;23904;52.322;10.232;2022-08-24T06:13:33;10.88;;;4.07;;
38089;SDS011;23904;52.322;10.232;2022-08-24T06:16:03;9.80;;;3.85;;
38089;SDS011;23904;52.322;10.232;2022-08-24T06:18:37;11.73;;;3.75;;
38089;SDS011;23904;52.322;10.232;2022-08-24T06:21:04;10.85;;;3.95;;
38089;SDS011;23904;52.322;10.232;2022-08-24T06:23:31;9.35;;;3.42;;
38089;SDS011;23904;52.322;10.232;2022-08-24T06:25:58;4.80;;;2.90;;
38089;SDS011;23904;52.322;10.232;2022-08-24T06:28:42;9.45;;;3.78;;
38089;SDS011;23904;52.322;10.232;2022-08-24T06:31:08;9.70;;;3.95;;
38089;SDS011;23904;52.322;10.232;2022-08-24T06:33:33;8.40;;;3.92;;
38089;SDS011;23904;52.322;10.232;2022-08-24T06:35:59;8.25;;;4.07;;
38089;SDS011;23904;52.322;10.232;2022-08-24T06:38:25;10.02;;;3.72;;
38089;SDS011;23904;52.322;10.232;2022-08-24T06:40:50;6.30;;;3.38;;
38089;SDS011;23904;52.322;10.232;2022-08-24T06:43:16;9.20;;;4.30;;
38089;SDS011;23904;52.322;10.232;2022-08-24T06:45:42;11.52;;;4.53;;
38089;SDS011;23904;52.322;10.232;2022-08-24T06:48:08;12.27;;;3.53;;
38089;SDS011;23904;52.322;10.232;2022-08-24T06:50:34;15.40;;;4.20;;
38089;SDS011;23904;52.322;10.232;2022-08-24T06:53:00;8.18;;;3.40;;
38089;SDS011;23904;52.322;10.232;2022-08-24T06:55:26;12.43;;;3.95;;
38089;SDS011;23904;52.322;10.232;2022-08-24T06:57:53;10.10;;;3.30;;
38089;SDS011;23904;52.322;10.232;2022-08-24T07:00:19;12.02;;;3.60;;
38089;SDS011;23904;52.322;10.232;2022-08-24T07:02:45;9.30;;;3.60;;
38089;SDS011;23904;52.322;10.232;2022-08-24T07:05:11;7.10;;;3.08;;
38089;SDS011;23904;52.322;10.232;2022-08-24T07:07:37;13.38;;;4.25;;
38089;SDS011;23904;52.322;10.232;2022-08-24T07:10:03;10.80;;;4.32;;
38089;SDS011;23904;52.322;10.232;2022-08-24T07:12:29;10.35;;;4.10;;
38089;SDS011;23904;52.322;10.232;2022-08-24T07:14:55;11.27;;;3.83;;
38089;SDS011;23904;52.322;10.232;2022-08-24T07:17:20;8.18;;;3.10;;
38089;SDS011;23904;52.322;10.232;2022-08-24T07:19:47;6.68;;;3.38;;
38089;SDS011;23904;52.322;10.232;2022-08-24T07:22:13;9.45;;;4.05;;
38089;SDS011;23904;52.322;10.232;2022-08-24T07:24:39;9.68;;;3.35;;
38089;SDS011;23904;52.322;10.232;2022-08-24T07:27:05;9.25;;;4.20;;
38089;SDS011;23904;52.322;10.232;2022-08-24T07:29:30;6.45;;;3.33;;
38089;SDS011;23904;52.322;10.232;2022-08-24T07:31:56;6.40;;;3.30;;
38089;SDS011;23904;52.322;10.232;2022-08-24T07:34:22;19.98;;;3.88;;
38089;SDS011;23904;52.322;10.232;2022-08-24T07:36:48;5.38;;;2.88;;
38089;SDS011;23904;52.322;10.232;2022-08-24T07:39:14;6.82;;;2.90;;
38089;SDS011;23904;52.322;10.232;2022-08-24T07:41:41;11.68;;;3.72;;
38089;SDS011;23904;52.322;10.232;2022-08-24T07:44:08;7.20;;;3.55;;
38089;SDS011;23904;52.322;10.232;2022-08-24T07:46:37;9.50;;;2.67;;
38089;SDS011;23904;52.322;10.232;2022-08-24T07:49:05;5.90;;;2.80;;
38089;SDS011;23904;52.322;10.232;2022-08-24T07:51:31;8.73;;;4.22;;
38089;SDS011;23904;52.322;10.232;2022-08-24T07:53:57;13.88;;;3.58;;
38089;SDS011;23904;52.322;10.232;2022-08-24T07:56:22;14.68;;;4.22;;
38089;SDS011;23904;52.322;10.232;2022-08-24T07:58:48;6.43;;;3.50;;
38089;SDS011;23904;52.322;10.232;2022-08-24T08:01:14;6.03;;;3.40;;
38089;SDS011;23904;52.322;10.232;2022-08-24T08:03:39;8.00;;;3.40;;
38089;SDS011;23904;52.322;10.232;2022-08-24T08:06:06;5.00;;;3.30;;
38089;SDS011;23904;52.322;10.232;2022-08-24T08:08:34;8.05;;;3.10;;
38089;SDS011;23904;52.322;10.232;2022-08-24T08:11:01;8.25;;;3.08;;
38089;SDS011;23904;52.322;10.232;2022-08-24T08:13:28;8.18;;;3.10;;
38089;SDS011;23904;52.322;10.232;2022-08-24T08:15:54;8.23;;;2.85;;
38089;SDS011;23904;52.322;10.232;2022-08-24T08:18:20;8.43;;;3.22;;
38089;SDS011;23904;52.322;10.232;2022-08-24T08:20:46;9.43;;;2.97;;
38089;SDS011;23904;52.322;10.232;2022-08-24T08:23:12;5.82;;;2.65;;
38089;SDS011;23904;52.322;10.232;2022-08-24T08:25:57;18.10;;;3.17;;
38089;SDS011;23904;52.322;10.232;2022-08-24T08:28:25;4.70;;;2.67;;
38089;SDS011;23904;52.322;10.232;2022-08-24T08:30:56;5.47;;;2.58;;
38089;SDS011;23904;52.322;10.232;2022-08-24T08:33:26;6.63;;;2.60;;
38089;SDS011;23904;52.322;10.232;2022-08-24T08:35:55;10.57;;;2.83;;
38089;SDS011;23904;52.322;10.232;2022-08-24T08:38:36;6.45;;;2.83;;
38089;SDS011;23904;52.322;10.232;2022-08-24T08:49:10;8.43;;;2.10;;
38089;SDS011;23904;52.322;10.232;2022-08-24T08:51:50;7.00;;;2.35;;
38089;SDS011;23904;52.322;10.232;2022-08-24T08:54:31;3.78;;;1.80;;
38089;SDS011;23904;52.322;10.232;2022-08-24T09:00:00;4.75;;;1.63;;
38089;SDS011;23904;52.322;10.232;2022-08-24T09:05:15;6.68;;;1.63;;
38089;SDS011;23904;52.322;10.232;2022-08-24T09:11:15;3.85;;;1.50;;
38089;SDS011;23904;52.322;10.232;2022-08-24T09:19:42;5.07;;;1.77;;
38089;SDS011;23904;52.322;10.232;2022-08-24T09:22:29;3.92;;;1.48;;
38089;SDS011;23904;52.322;10.232;2022-08-24T09:25:07;3.97;;;1.55;;
38089;SDS011;23904;52.322;10.232;2022-08-24T09:33:30;4.93;;;1.45;;
38089;SDS011;23904;52.322;10.232;2022-08-24T09:36:17;4.07;;;1.33;;
38089;SDS011;23904;52.322;10.232;2022-08-24T09:38:55;3.72;;;1.67;;
38089;SDS011;23904;52.322;10.232;2022-08-24T09:43:56;3.35;;;1.30;;
38089;SDS011;23904;52.322;10.232;2022-08-24T09:55:05;2.45;;;1.30;;
38089;SDS011;23904;52.322;10.232;2022-08-24T10:11:44;2.92;;;1.45;;
38089;SDS011;23904;52.322;10.232;2022-08-24T10:17:39;3.85;;;1.65;;
38089;SDS011;23904;52.322;10.232;2022-08-24T10:23:04;4.50;;;1.27;;
38089;SDS011;23904;52.322;10.232;2022-08-24T10:26:00;5.38;;;1.77;;
38089;SDS011;23904;52.322;10.232;2022-08-24T10:36:48;6.32;;;2.00;;
38089;SDS011;23904;52.322;10.232;2022-08-24T10:39:36;4.13;;;1.40;;
38089;SDS011;23904;52.322;10.232;2022-08-24T10:50:58;3.72;;;1.92;;
38089;SDS011;23904;52.322;10.232;2022-08-24T10:53:46;4.82;;;1.50;;
38089;SDS011;23904;52.322;10.232;2022-08-24T10:56:15;3.15;;;1.60;;
38089;SDS011;23904;52.322;10.232;2022-08-24T11:01:26;2.15;;;1.20;;
38089;SDS011;23904;52.322;10.232;2022-08-24T11:03:54;3.38;;;1.65;;
38089;SDS011;23904;52.322;10.232;2022-08-24T11:06:24;5.63;;;1.42;;
38089;SDS011;23904;52.322;10.232;2022-08-24T11:08:57;4.70;;;1.77;;
38089;SDS011;23904;52.322;10.232;2022-08-24T11:11:28;3.33;;;1.38;;
38089;SDS011;23904;52.322;10.232;2022-08-24T11:13:57;6.47;;;1.42;;
38089;SDS011;23904;52.322;10.232;2022-08-24T11:16:33;3.10;;;1.30;;
38089;SDS011;23904;52.322;10.232;2022-08-24T11:19:06;4.03;;;1.45;;
38089;SDS011;23904;52.322;10.232;2022-08-24T11:26:56;2.60;;;1.45;;
38089;SDS011;23904;52.322;10.232;2022-08-24T11:29:52;3.40;;;1.88;;
38089;SDS011;23904;52.322;10.232;2022-08-24T11:37:42;5.57;;;1.92;;
38089;SDS011;23904;52.322;10.232;2022-08-24T11:40:09;5.07;;;1.67;;
38089;SDS011;23904;52.322;10.232;2022-08-24T11:42:44;3.45;;;1.50;;
38089;SDS011;23904;52.322;10.232;2022-08-24T11:54:02;4.18;;;1.98;;
38089;SDS011;23904;52.322;10.232;2022-08-24T11:57:03;6.38;;;1.75;;
38089;SDS011;23904;52.322;10.232;2022-08-24T12:00:09;3.40;;;1.58;;
38089;SDS011;23904;52.322;10.232;2022-08-24T12:05:50;4.72;;;1.58;;
38089;SDS011;23904;52.322;10.232;2022-08-24T12:10:48;4.20;;;2.00;;
38089;SDS011;23904;52.322;10.232;2022-08-24T12:15:50;2.45;;;1.80;;
38089;SDS011;23904;52.322;10.232;2022-08-24T12:21:06;6.75;;;2.20;;
38089;SDS011;23904;52.322;10.232;2022-08-24T12:23:36;4.53;;;2.28;;
38089;SDS011;23904;52.322;10.232;2022-08-24T12:26:13;3.80;;;2.10;;
38089;SDS011;23904;52.322;10.232;2022-08-24T12:28:43;15.02;;;2.40;;
38089;SDS011;23904;52.322;10.232;2022-08-24T12:31:15;4.68;;;1.95;;
38089;SDS011;23904;52.322;10.232;2022-08-24T12:33:53;6.07;;;1.98;;
38089;SDS011;23904;52.322;10.232;2022-08-24T12:36:30;6.28;;;1.90;;
38089;SDS011;23904;52.322;10.232;2022-08-24T12:39:05;6.22;;;2.45;;
38089;SDS011;23904;52.322;10.232;2022-08-24T12:42:02;6.32;;;2.30;;
38089;SDS011;23904;52.322;10.232;2022-08-24T12:44:36;4.40;;;2.17;;
38089;SDS011;23904;52.322;10.232;2022-08-24T12:47:37;4.55;;;2.05;;
38089;SDS011;23904;52.322;10.232;2022-08-24T12:50:23;6.65;;;2.40;;
38089;SDS011;23904;52.322;10.232;2022-08-24T12:53:02;5.63;;;2.30;;
38089;SDS011;23904;52.322;10.232;2022-08-24T12:55:49;6.38;;;2.17;;
38089;SDS011;23904;52.322;10.232;2022-08-24T12:58:29;3.95;;;1.98;;
38089;SDS011;23904;52.322;10.232;2022-08-24T13:01:04;3.40;;;1.88;;
38089;SDS011;23904;52.322;10.232;2022-08-24T13:03:32;7.03;;;2.10;;
38089;SDS011;23904;52.322;10.232;2022-08-24T13:08:40;5.65;;;1.95;;
38089;SDS011;23904;52.322;10.232;2022-08-24T13:11:14;5.10;;;1.90;;
38089;SDS011;23904;52.322;10.232;2022-08-24T13:14:04;5.00;;;1.80;;
38089;SDS011;23904;52.322;10.232;2022-08-24T13:19:36;9.73;;;2.28;;
38089;SDS011;23904;52.322;10.232;2022-08-24T13:29:40;5.35;;;2.15;;
38089;SDS011;23904;52.322;10.232;2022-08-24T13:32:15;8.98;;;2.50;;
38089;SDS011;23904;52.322;10.232;2022-08-24T13:34:48;7.55;;;2.45;;
38089;SDS011;23904;52.322;10.232;2022-08-24T13:42:42;4.25;;;2.28;;
38089;SDS011;23904;52.322;10.232;2022-08-24T13:48:16;6.32;;;2.58;;
38089;SDS011;23904;52.322;10.232;2022-08-24T13:54:13;4.32;;;1.92;;
38089;SDS011;23904;52.322;10.232;2022-08-24T14:02:54;5.72;;;2.30;;
38089;SDS011;23904;52.322;10.232;2022-08-24T14:08:33;5.53;;;3.10;;
38089;SDS011;23904;52.322;10.232;2022-08-24T14:14:26;3.65;;;2.40;;
38089;SDS011;23904;52.322;10.232;2022-08-24T14:32:28;6.75;;;2.25;;
38089;SDS011;23904;52.322;10.232;2022-08-24T14:34:52;6.60;;;2.58;;
38089;SDS011;23904;52.322;10.232;2022-08-24T14:40:31;4.47;;;1.92;;
38089;SDS011;23904;52.322;10.232;2022-08-24T14:45:50;6.68;;;2.30;;
38089;SDS011;23904;52.322;10.232;2022-08-24T14:51:37;6.40;;;2.10;;
38089;SDS011;23904;52.322;10.232;2022-08-24T14:56:58;8.00;;;2.63;;
38089;SDS011;23904;52.322;10.232;2022-08-24T15:02:32;5.43;;;2.55;;
38089;SDS011;23904;52.322;10.232;2022-08-24T15:07:55;4.88;;;2.08;;
38089;SDS011;23904;52.322;10.232;2022-08-24T15:10:33;3.28;;;1.90;;
38089;SDS011;23904;52.322;10.232;2022-08-24T15:13:25;6.55;;;2.08;;
38089;SDS011;23904;52.322;10.232;2022-08-24T15:15:52;3.22;;;1.80;;
38089;SDS011;23904;52.322;10.232;2022-08-24T15:18:44;5.50;;;2.28;;
38089;SDS011;23904;52.322;10.232;2022-08-24T15:24:13;5.65;;;2.05;;
38089;SDS011;23904;52.322;10.232;2022-08-24T15:26:56;5.10;;;2.10;;
38089;SDS011;23904;52.322;10.232;2022-08-24T15:29:50;4.55;;;2.13;;
38089;SDS011;23904;52.322;10.232;2022-08-24T15:32:18;5.75;;;2.10;;
38089;SDS011;23904;52.322;10.232;2022-08-24T15:34:50;3.92;;;2.00;;
38089;SDS011;23904;52.322;10.232;2022-08-24T15:37:28;7.60;;;2.47;;
38089;SDS011;23904;52.322;10.232;2022-08-24T15:39:59;4.03;;;2.20;;
38089;SDS011;23904;52.322;10.232;2022-08-24T15:42:27;4.85;;;2.28;;
38089;SDS011;23904;52.322;10.232;2022-08-24T15:44:57;5.05;;;2.70;;
38089;SDS011;23904;52.322;10.232;2022-08-24T15:47:26;7.63;;;3.10;;
38089;SDS011;23904;52.322;10.232;2022-08-24T15:50:06;4.97;;;2.08;;
38089;SDS011;23904;52.322;10.232;2022-08-24T15:55:32;5.97;;;2.35;;
38089;SDS011;23904;52.322;10.232;2022-08-24T16:00:48;4.80;;;1.75;;
38089;SDS011;23904;52.322;10.232;2022-08-24T16:03:44;4.10;;;2.05;;
38089;SDS011;23904;52.322;10.232;2022-08-24T16:11:29;5.88;;;2.05;;
38089;SDS011;23904;52.322;10.232;2022-08-24T16:13:57;4.70;;;1.98;;
38089;SDS011;23904;52.322;10.232;2022-08-24T16:16:37;9.55;;;2.55;;
38089;SDS011;23904;52.322;10.232;2022-08-24T16:19:05;5.47;;;2.00;;
38089;SDS011;23904;52.322;10.232;2022-08-24T16:24:30;5.03;;;1.88;;
38089;SDS011;23904;52.322;10.232;2022-08-24T16:32:14;8.48;;;2.90;;
38089;SDS011;23904;52.322;10.232;2022-08-24T16:34:48;6.85;;;1.85;;
38089;SDS011;23904;52.322;10.232;2022-08-24T16:37:16;8.95;;;2.15;;
38089;SDS011;23904;52.322;10.232;2022-08-24T16:39:44;5.57;;;1.77;;
38089;SDS011;23904;52.322;10.232;2022-08-24T16:42:23;6.05;;;2.22;;
38089;SDS011;23904;52.322;10.232;2022-08-24T16:44:51;5.53;;;2.50;;
38089;SDS011;23904;52.322;10.232;2022-08-24T16:47:19;6.43;;;2.28;;
38089;SDS011;23904;52.322;10.232;2022-08-24T16:49:45;5.20;;;2.42;;
38089;SDS011;23904;52.322;10.232;2022-08-24T16:52:10;5.28;;;2.70;;
38089;SDS011;23904;52.322;10.232;2022-08-24T16:54:36;4.20;;;2.60;;
38089;SDS011;23904;52.322;10.232;2022-08-24T16:57:05;3.63;;;2.30;;
38089;SDS011;23904;52.322;10.232;2022-08-24T16:59:40;3.90;;;2.22;;
38089;SDS011;23904;52.322;10.232;2022-08-24T17:02:07;8.48;;;2.30;;
38089;SDS011;23904;52.322;10.232;2022-08-24T17:04:33;5.75;;;1.98;;
38089;SDS011;23904;52.322;10.232;2022-08-24T17:07:00;4.63;;;2.35;;
38089;SDS011;23904;52.322;10.232;2022-08-24T17:09:27;7.32;;;2.35;;
38089;SDS011;23904;52.322;10.232;2022-08-24T17:11:53;6.38;;;2.38;;
38089;SDS011;23904;52.322;10.232;2022-08-24T17:14:19;6.47;;;2.10;;
38089;SDS011;23904;52.322;10.232;2022-08-24T17:16:44;5.10;;;2.15;;
38089;SDS011;23904;52.322;10.232;2022-08-24T17:19:11;7.00;;;2.72;;
38089;SDS011;23904;52.322;10.232;2022-08-24T17:21:39;4.00;;;2.05;;
38089;SDS011;23904;52.322;10.232;2022-08-24T17:24:07;9.73;;;2.45;;
38089;SDS011;23904;52.322;10.232;2022-08-24T17:26:34;6.88;;;2.53;;
38089;SDS011;23904;52.322;10.232;2022-08-24T17:29:01;5.47;;;2.10;;
38089;SDS011;23904;52.322;10.232;2022-08-24T17:31:30;5.30;;;2.35;;
38089;SDS011;23904;52.322;10.232;2022-08-24T17:33:57;4.15;;;2.00;;
38089;SDS011;23904;52.322;10.232;2022-08-24T17:36:23;4.05;;;2.20;;
38089;SDS011;23904;52.322;10.232;2022-08-24T17:38:51;5.63;;;3.55;;
38089;SDS011;23904;52.322;10.232;2022-08-24T17:41:19;6.38;;;2.25;;
38089;SDS011;23904;52.322;10.232;2022-08-24T17:43:45;6.93;;;2.85;;
38089;SDS011;23904;52.322;10.232;2022-08-24T17:46:11;5.05;;;2.28;;
38089;SDS011;23904;52.322;10.232;2022-08-24T17:48:38;7.57;;;2.50;;
38089;SDS011;23904;52.322;10.232;2022-08-24T17:51:06;7.50;;;2.90;;
38089;SDS011;23904;52.322;10.232;2022-08-24T17:53:32;5.47;;;3.05;;
38089;SDS011;23904;52.322;10.232;2022-08-24T17:55:57;5.55;;;2.60;;
38089;SDS011;23904;52.322;10.232;2022-08-24T17:58:23;4.65;;;2.15;;
38089;SDS011;23904;52.322;10.232;2022-08-24T18:00:49;5.97;;;2.90;;
38089;SDS011;23904;52.322;10.232;2022-08-24T18:03:15;10.90;;;3.10;;
38089;SDS011;23904;52.322;10.232;2022-08-24T18:05:40;5.63;;;2.90;;
38089;SDS011;23904;52.322;10.232;2022-08-24T18:08:06;8.23;;;3.28;;
38089;SDS011;23904;52.322;10.232;2022-08-24T18:10:32;7.65;;;3.38;;
38089;SDS011;23904;52.322;10.232;2022-08-24T18:12:59;6.07;;;2.90;;
38089;SDS011;23904;52.322;10.232;2022-08-24T18:15:26;10.85;;;3.60;;
38089;SDS011;23904;52.322;10.232;2022-08-24T18:17:54;10.00;;;3.08;;